createdAt,value
2023-03-03T00:00:25.309Z,69.80
2023-03-03T00:03:18.483Z,72.30
2023-03-03T00:05:53.247Z,66.00
2023-03-03T00:08:23.574Z,63.00
2023-03-03T00:10:55.937Z,75.60
2023-03-03T00:13:27.565Z,64.10
2023-03-03T00:16:13.558Z,62.90
2023-03-03T00:18:47.692Z,63.30
2023-03-03T00:21:42.301Z,69.00
2023-03-03T00:24:26.173Z,63.40
2023-03-03T00:27:02.307Z,65.00
2023-03-03T00:29:39.746Z,67.50
2023-03-03T00:32:15.484Z,57.10
2023-03-03T00:34:48.158Z,76.30
2023-03-03T00:37:36.224Z,66.50
2023-03-03T00:40:24.422Z,69.60
2023-03-03T00:43:00.154Z,68.20
2023-03-03T00:45:48.461Z,62.10
2023-03-03T00:48:49.196Z,64.20
2023-03-03T00:51:29.516Z,59.90
2023-03-03T00:54:01.528Z,65.40
2023-03-03T00:56:34.711Z,65.80
2023-03-03T00:59:08.043Z,63.20
2023-03-03T01:01:39.711Z,64.20
2023-03-03T01:04:10.107Z,61.60
2023-03-03T01:06:41.894Z,61.50
2023-03-03T01:09:12.204Z,68.30
2023-03-03T01:11:43.356Z,62.00
2023-03-03T01:14:16.202Z,67.90
2023-03-03T01:16:48.524Z,67.40
2023-03-03T01:19:22.140Z,63.20
2023-03-03T01:21:54.186Z,73.50
2023-03-03T01:24:24.796Z,71.80
2023-03-03T01:26:55.357Z,57.20
2023-03-03T01:29:28.556Z,61.70
2023-03-03T01:31:58.156Z,60.00
2023-03-03T01:34:28.752Z,61.10
2023-03-03T01:36:58.928Z,60.10
2023-03-03T01:39:29.293Z,69.40
2023-03-03T01:41:59.386Z,70.30
2023-03-03T01:44:28.329Z,70.40
2023-03-03T01:47:19.213Z,72.90
2023-03-03T01:49:53.430Z,70.00
2023-03-03T01:52:35.277Z,59.60
2023-03-03T01:55:11.818Z,63.30
2023-03-03T01:57:48.133Z,64.30
2023-03-03T02:00:18.326Z,73.60
2023-03-03T02:02:48.163Z,65.20
2023-03-03T02:05:18.645Z,58.30
2023-03-03T02:07:51.434Z,69.80
2023-03-03T02:10:21.989Z,72.20
2023-03-03T02:12:56.404Z,70.30
2023-03-03T02:15:36.366Z,68.50
2023-03-03T02:18:23.829Z,67.50
2023-03-03T02:21:05.327Z,61.90
2023-03-03T02:24:15.621Z,56.10
2023-03-03T02:26:48.036Z,60.30
2023-03-03T02:29:18.455Z,59.90
2023-03-03T02:31:49.339Z,61.10
2023-03-03T02:34:19.439Z,63.00
2023-03-03T02:36:51.176Z,55.70
2023-03-03T02:39:28.059Z,60.60
2023-03-03T02:42:11.264Z,54.80
2023-03-03T02:44:47.996Z,55.60
2023-03-03T02:47:18.068Z,60.20
2023-03-03T02:49:51.310Z,64.50
2023-03-03T02:52:22.554Z,64.00
2023-03-03T02:54:53.160Z,57.80
2023-03-03T02:57:24.214Z,60.10
2023-03-03T02:59:54.971Z,63.80
2023-03-03T03:02:25.956Z,66.60
2023-03-03T03:04:55.802Z,52.60
2023-03-03T03:07:27.947Z,51.80
2023-03-03T03:09:58.309Z,58.00
2023-03-03T03:12:27.822Z,56.80
2023-03-03T03:14:59.140Z,66.00
2023-03-03T03:17:31.135Z,70.00
2023-03-03T03:20:03.774Z,67.30
2023-03-03T03:22:36.780Z,58.50
2023-03-03T03:25:07.036Z,64.00
2023-03-03T03:27:38.008Z,65.20
2023-03-03T03:30:14.619Z,63.70
2023-03-03T03:32:46.374Z,61.80
2023-03-03T03:35:19.652Z,56.60
2023-03-03T03:37:50.128Z,68.70
2023-03-03T03:40:19.840Z,64.90
2023-03-03T03:42:48.966Z,55.80
2023-03-03T03:45:19.582Z,46.80
2023-03-03T03:47:51.742Z,45.60
2023-03-03T03:50:22.498Z,49.00
2023-03-03T03:52:55.032Z,54.20
2023-03-03T03:55:25.774Z,56.90
2023-03-03T03:57:56.800Z,52.80
2023-03-03T04:00:27.582Z,46.70
2023-03-03T04:02:59.759Z,49.90
2023-03-03T04:05:30.656Z,40.60
2023-03-03T04:07:59.848Z,45.90
2023-03-03T04:10:30.366Z,50.00
2023-03-03T04:12:59.827Z,45.00
2023-03-03T04:15:29.870Z,43.70
2023-03-03T04:17:59.321Z,41.60
2023-03-03T04:20:30.451Z,40.60
2023-03-03T04:23:00.854Z,43.40
2023-03-03T04:25:36.320Z,47.80
2023-03-03T04:28:14.306Z,35.90
2023-03-03T04:30:48.332Z,46.50
2023-03-03T04:33:20.357Z,39.00
2023-03-03T04:35:51.664Z,41.90
2023-03-03T04:38:24.762Z,34.80
2023-03-03T04:40:56.581Z,38.10
2023-03-03T04:43:27.220Z,37.00
2023-03-03T04:46:01.389Z,38.60
2023-03-03T04:48:32.572Z,38.40
2023-03-03T04:51:03.451Z,43.30
2023-03-03T04:53:38.788Z,37.00
2023-03-03T04:56:09.199Z,37.00
2023-03-03T04:58:41.721Z,30.40
2023-03-03T05:01:14.969Z,31.00
2023-03-03T05:03:45.320Z,32.90
2023-03-03T05:06:14.381Z,42.40
2023-03-03T05:08:46.290Z,39.80
2023-03-03T05:11:16.544Z,30.80
2023-03-03T05:13:48.208Z,34.10
2023-03-03T05:16:19.947Z,42.50
2023-03-03T05:18:50.820Z,45.10
2023-03-03T05:21:21.271Z,42.20
2023-03-03T05:23:53.022Z,36.00
2023-03-03T05:26:23.443Z,34.50
2023-03-03T05:28:54.731Z,36.80
2023-03-03T05:31:27.623Z,35.50
2023-03-03T05:33:57.159Z,31.60
2023-03-03T05:36:29.164Z,37.40
2023-03-03T05:38:59.021Z,35.10
2023-03-03T05:41:31.139Z,35.20
2023-03-03T05:44:01.148Z,34.80
2023-03-03T05:46:33.442Z,31.90
2023-03-03T05:49:02.734Z,30.40
2023-03-03T05:51:33.637Z,31.50
2023-03-03T05:54:04.055Z,33.90
2023-03-03T05:56:35.285Z,27.10
2023-03-03T05:59:06.036Z,35.70
2023-03-03T06:01:37.611Z,25.70
2023-03-03T06:04:07.683Z,37.00
2023-03-03T06:06:40.315Z,29.80
2023-03-03T06:09:12.437Z,28.80
2023-03-03T06:11:45.180Z,31.00
2023-03-03T06:14:18.925Z,33.10
2023-03-03T06:16:50.835Z,32.90
2023-03-03T06:19:23.774Z,29.90
2023-03-03T06:21:56.064Z,17.90
2023-03-03T06:24:30.618Z,30.20
2023-03-03T06:27:02.331Z,29.40
2023-03-03T06:29:33.555Z,30.20
2023-03-03T06:32:06.260Z,27.50
2023-03-03T06:34:39.059Z,32.10
2023-03-03T06:37:08.587Z,28.10
2023-03-03T06:39:40.138Z,31.90
2023-03-03T06:42:10.749Z,33.10
2023-03-03T06:44:43.296Z,32.50
2023-03-03T06:47:13.932Z,31.50
2023-03-03T06:49:44.801Z,26.70
2023-03-03T06:52:27.606Z,30.20
2023-03-03T06:55:01.710Z,28.70
2023-03-03T06:57:34.445Z,35.10
2023-03-03T07:00:25.160Z,35.20
2023-03-03T07:03:18.443Z,36.60
2023-03-03T07:05:54.244Z,33.40
2023-03-03T07:08:32.701Z,35.60
2023-03-03T07:11:10.820Z,32.90
2023-03-03T07:13:47.080Z,32.80
2023-03-03T07:16:18.455Z,38.90
2023-03-03T07:18:55.911Z,38.80
2023-03-03T07:21:35.818Z,40.30
2023-03-03T07:24:20.487Z,27.60
2023-03-03T07:26:50.471Z,40.40
2023-03-03T07:29:27.407Z,38.30
2023-03-03T07:31:59.544Z,36.20
2023-03-03T07:34:44.724Z,38.30
2023-03-03T07:37:32.289Z,41.40
2023-03-03T07:40:23.735Z,37.40
2023-03-03T07:42:54.713Z,30.10
2023-03-03T07:45:39.246Z,26.00
2023-03-03T07:48:41.656Z,56.60
2023-03-03T07:51:28.505Z,30.30
2023-03-03T07:54:19.201Z,26.60
2023-03-03T07:56:51.563Z,29.70
2023-03-03T07:59:28.714Z,35.40
2023-03-03T08:02:02.113Z,27.70
2023-03-03T08:04:34.177Z,29.00
2023-03-03T08:07:05.934Z,33.60
2023-03-03T08:09:47.390Z,29.90
2023-03-03T08:12:42.298Z,31.80
2023-03-03T08:15:30.433Z,26.40
2023-03-03T08:18:02.689Z,35.60
2023-03-03T08:20:57.529Z,23.10
2023-03-03T08:23:28.345Z,15.90
2023-03-03T08:28:45.873Z,14.40
2023-03-03T08:31:40.199Z,14.90
2023-03-03T08:34:16.295Z,19.40
2023-03-03T08:36:49.523Z,21.40
2023-03-03T08:39:20.116Z,19.30
2023-03-03T08:41:53.741Z,21.00
2023-03-03T08:44:25.281Z,16.50
2023-03-03T08:46:59.844Z,18.50
2023-03-03T08:49:33.534Z,15.90
2023-03-03T08:52:03.156Z,16.30
2023-03-03T08:54:43.633Z,14.60
2023-03-03T08:57:15.644Z,11.50
2023-03-03T08:59:51.874Z,13.30
2023-03-03T09:02:32.671Z,15.10
2023-03-03T09:05:05.368Z,19.50
2023-03-03T09:08:25.778Z,17.10
2023-03-03T09:11:55.817Z,19.20
2023-03-03T09:22:09.771Z,24.80
2023-03-03T09:24:49.408Z,15.90
2023-03-03T09:27:23.215Z,19.10
2023-03-03T09:29:57.119Z,18.90
2023-03-03T09:32:38.240Z,16.60
2023-03-03T09:35:38.191Z,11.90
2023-03-03T09:38:38.163Z,11.80
2023-03-03T09:41:26.411Z,14.90
2023-03-03T09:44:23.183Z,14.20
2023-03-03T09:47:42.234Z,13.30
2023-03-03T09:50:37.288Z,11.60
2023-03-03T09:53:52.264Z,13.90
2023-03-03T10:00:03.873Z,10.20
2023-03-03T10:09:50.339Z,12.30
2023-03-03T10:32:13.828Z,14.00
2023-03-03T10:35:02.340Z,9.70
2023-03-03T10:38:15.094Z,14.40
2023-03-03T10:41:05.158Z,12.50
2023-03-03T10:44:32.009Z,9.80
2023-03-03T10:47:10.223Z,11.90
2023-03-03T10:52:34.315Z,16.40
2023-03-03T10:55:32.745Z,23.30
2023-03-03T10:58:31.520Z,17.80
2023-03-03T11:01:09.393Z,17.00
2023-03-03T11:04:17.765Z,11.50
2023-03-03T11:06:48.928Z,13.90
2023-03-03T11:09:38.370Z,13.10
2023-03-03T11:12:29.107Z,10.90
2023-03-03T11:15:27.949Z,12.00
2023-03-03T11:18:25.883Z,12.20
2023-03-03T11:21:34.985Z,11.00
2023-03-03T11:25:05.433Z,10.10
2023-03-03T11:28:30.565Z,11.20
2023-03-03T11:34:30.278Z,15.80
2023-03-03T11:37:09.086Z,15.40
2023-03-03T11:39:42.483Z,17.40
2023-03-03T11:42:34.599Z,14.90
2023-03-03T11:45:21.066Z,15.70
2023-03-03T11:48:07.103Z,15.20
2023-03-03T11:50:39.346Z,16.50
2023-03-03T11:53:25.212Z,18.20
2023-03-03T11:56:04.734Z,16.90
2023-03-03T11:58:46.449Z,17.90
2023-03-03T12:01:50.813Z,15.70
2023-03-03T12:04:48.076Z,16.60
2023-03-03T12:07:33.877Z,17.80
2023-03-03T12:10:49.995Z,16.80
2023-03-03T12:50:10.797Z,16.50
2023-03-03T12:52:57.666Z,16.30
2023-03-03T12:55:43.021Z,17.40
2023-03-03T12:58:33.273Z,15.40
2023-03-03T13:01:44.581Z,16.50
2023-03-03T13:04:16.336Z,18.40
2023-03-03T13:07:07.204Z,17.10
2023-03-03T13:09:54.004Z,10.30
2023-03-03T13:12:45.908Z,17.90
2023-03-03T13:15:31.509Z,18.60
2023-03-03T13:18:20.494Z,19.30
2023-03-03T13:20:59.877Z,18.80
2023-03-03T13:23:38.719Z,17.80
2023-03-03T13:26:24.828Z,17.80
2023-03-03T13:29:05.820Z,15.70
2023-03-03T13:31:42.391Z,18.10
2023-03-03T13:34:24.048Z,17.30
2023-03-03T13:37:09.023Z,22.70
2023-03-03T13:39:52.136Z,27.60
2023-03-03T13:45:07.604Z,15.00
2023-03-03T13:48:23.107Z,17.10
2023-03-03T13:51:06.510Z,18.60
2023-03-03T13:53:44.894Z,17.10
2023-03-03T13:57:00.740Z,17.20
2023-03-03T14:00:02.248Z,18.50
2023-03-03T14:03:11.585Z,18.00
2023-03-03T14:06:15.108Z,17.90
2023-03-03T14:09:08.822Z,20.70
2023-03-03T14:11:56.492Z,14.40
2023-03-03T14:14:32.763Z,18.40
2023-03-03T14:17:30.697Z,14.70
2023-03-03T14:20:46.310Z,20.10
2023-03-03T14:23:23.916Z,15.90
2023-03-03T14:25:59.274Z,18.40
2023-03-03T14:28:30.173Z,16.70
2023-03-03T14:31:17.752Z,18.70
2023-03-03T14:34:38.878Z,16.50
2023-03-03T14:37:30.347Z,19.50
2023-03-03T14:40:09.618Z,19.00
2023-03-03T14:42:51.071Z,17.30
2023-03-03T14:45:33.453Z,19.30
2023-03-03T14:48:18.925Z,15.60
2023-03-03T14:51:05.412Z,16.40
2023-03-03T14:53:43.633Z,19.80
2023-03-03T14:56:36.301Z,19.40
2023-03-03T14:59:19.761Z,16.70
2023-03-03T15:02:11.028Z,15.60
2023-03-03T15:04:41.292Z,19.50
2023-03-03T15:07:32.018Z,19.00
2023-03-03T15:10:04.117Z,17.30
2023-03-03T15:12:33.795Z,13.00
2023-03-03T15:15:07.702Z,18.30
2023-03-03T15:17:50.477Z,18.10
2023-03-03T15:21:00.838Z,20.70
2023-03-03T15:24:00.388Z,14.80
2023-03-03T15:30:52.442Z,20.40
2023-03-03T15:34:42.801Z,15.40
2023-03-03T15:37:54.404Z,17.80
2023-03-03T15:40:30.767Z,15.70
2023-03-03T15:43:40.541Z,19.30
2023-03-03T16:18:28.754Z,17.70
2023-03-03T16:21:24.279Z,18.30
2023-03-03T16:24:49.813Z,22.70
2023-03-03T16:28:06.802Z,17.60
2023-03-03T16:31:04.667Z,17.60
2023-03-03T16:34:28.870Z,15.30
2023-03-03T16:44:17.481Z,23.40
2023-03-03T17:01:15.919Z,16.80
2023-03-03T17:04:16.506Z,19.90
2023-03-03T17:07:46.389Z,19.50
2023-03-03T17:15:30.311Z,17.20
2023-03-03T17:18:30.674Z,20.60
2023-03-03T17:22:01.218Z,20.10
2023-03-03T17:25:39.338Z,21.10
2023-03-03T17:29:06.875Z,23.10
2023-03-03T17:32:49.862Z,15.50
2023-03-03T17:35:40.821Z,16.20
2023-03-03T17:38:39.235Z,19.90
2023-03-03T17:41:19.707Z,18.00
2023-03-03T17:43:52.045Z,18.00
2023-03-03T17:46:46.020Z,21.50
2023-03-03T17:49:45.783Z,20.20
2023-03-03T17:53:02.591Z,17.80
2023-03-03T17:56:12.364Z,20.80
2023-03-03T17:59:04.326Z,25.30
2023-03-03T18:01:46.707Z,21.50
2023-03-03T18:04:42.653Z,24.10
2023-03-03T18:16:36.095Z,22.00
2023-03-03T18:22:47.029Z,26.40
2023-03-03T18:25:21.518Z,26.30
2023-03-03T18:37:00.236Z,24.80
2023-03-03T18:39:52.475Z,25.50
2023-03-03T18:42:42.993Z,19.40
2023-03-03T18:45:21.066Z,23.00
2023-03-03T18:48:13.506Z,23.70
2023-03-03T18:50:51.536Z,24.10
2023-03-03T18:53:27.506Z,19.00
2023-03-03T18:56:10.660Z,22.10
2023-03-03T18:58:44.808Z,22.70
2023-03-03T19:01:36.425Z,22.40
2023-03-03T19:04:13.933Z,25.50
2023-03-03T19:06:50.039Z,18.70
2023-03-03T19:09:39.916Z,24.40
2023-03-03T19:12:14.244Z,23.20
2023-03-03T19:14:47.155Z,25.50
2023-03-03T19:17:24.447Z,23.60
2023-03-03T19:20:16.052Z,28.60
2023-03-03T19:23:13.891Z,22.40
2023-03-03T19:25:45.410Z,22.20
2023-03-03T19:28:24.597Z,25.30
2023-03-03T19:31:35.733Z,26.20
2023-03-03T19:34:17.829Z,23.30
2023-03-03T19:37:10.756Z,23.30
2023-03-03T19:40:01.532Z,23.90
2023-03-03T19:42:56.877Z,21.10
2023-03-03T19:45:54.889Z,26.10
2023-03-03T19:48:52.338Z,24.00
2023-03-03T19:51:33.444Z,28.70
2023-03-03T19:54:44.789Z,26.30
2023-03-03T19:57:44.019Z,28.20
2023-03-03T20:00:40.113Z,28.70
2023-03-03T20:03:34.624Z,29.40
2023-03-03T20:06:50.308Z,26.80
2023-03-03T20:09:33.268Z,28.80
2023-03-03T20:12:32.114Z,26.90
2023-03-03T20:15:33.309Z,24.30
2023-03-03T20:18:24.289Z,25.80
2023-03-03T20:21:35.078Z,29.60
2023-03-03T20:24:46.393Z,27.90
2023-03-03T20:27:35.503Z,25.30
2023-03-03T20:30:23.749Z,28.30
2023-03-03T20:33:31.672Z,27.30
2023-03-03T20:36:39.204Z,32.70
2023-03-03T20:39:17.918Z,22.40
2023-03-03T20:42:17.273Z,27.10
2023-03-03T20:45:10.103Z,26.00
2023-03-03T20:48:07.366Z,23.40
2023-03-03T20:50:57.683Z,29.00
2023-03-03T20:54:03.270Z,21.40
2023-03-03T20:56:58.227Z,26.10
2023-03-03T21:00:05.071Z,27.20
2023-03-03T21:02:53.339Z,25.60
2023-03-03T21:05:29.055Z,30.20
2023-03-03T21:08:08.281Z,26.80
2023-03-03T21:10:42.701Z,26.90
2023-03-03T21:13:41.758Z,30.10
2023-03-03T21:16:25.802Z,29.10
2023-03-03T21:19:07.931Z,23.20
2023-03-03T21:21:45.674Z,21.50
2023-03-03T21:24:19.606Z,32.00
2023-03-03T21:26:58.657Z,25.50
2023-03-03T21:29:30.337Z,27.40
2023-03-03T21:32:05.773Z,26.80
2023-03-03T21:37:08.506Z,28.20
2023-03-03T21:39:42.128Z,23.60
2023-03-03T21:42:16.466Z,31.80
2023-03-03T21:44:53.178Z,22.70
2023-03-03T21:47:28.955Z,26.10
2023-03-03T21:50:00.587Z,26.40
2023-03-03T21:52:33.022Z,27.30
2023-03-03T21:55:03.120Z,25.50
2023-03-03T21:57:35.120Z,26.80
2023-03-03T22:00:07.292Z,28.00
2023-03-03T22:02:36.335Z,36.40
2023-03-03T22:05:07.321Z,23.50
2023-03-03T22:07:39.356Z,24.10
2023-03-03T22:10:09.588Z,25.10
2023-03-03T22:12:38.488Z,27.50
2023-03-03T22:15:08.555Z,31.60
2023-03-03T22:17:39.733Z,30.70
2023-03-03T22:20:10.581Z,29.70
2023-03-03T22:22:41.531Z,30.70
2023-03-03T22:25:11.589Z,31.80
2023-03-03T22:27:40.274Z,33.40
2023-03-03T22:30:14.685Z,28.60
2023-03-03T22:32:46.194Z,22.90
2023-03-03T22:35:15.193Z,29.60
2023-03-03T22:37:46.620Z,24.80
2023-03-03T22:40:16.164Z,32.80
2023-03-03T22:42:46.283Z,28.30
2023-03-03T22:45:17.231Z,29.10
2023-03-03T22:47:48.273Z,27.60
2023-03-03T22:50:18.109Z,29.80
2023-03-03T22:52:47.715Z,24.50
2023-03-03T22:55:18.032Z,31.70
2023-03-03T22:57:47.898Z,24.40
2023-03-03T23:00:21.354Z,27.50
2023-03-03T23:02:49.797Z,22.10
2023-03-03T23:05:22.577Z,29.60
2023-03-03T23:07:52.054Z,28.50
2023-03-03T23:10:21.268Z,26.50
2023-03-03T23:12:49.416Z,32.80
2023-03-03T23:15:18.347Z,32.50
2023-03-03T23:17:48.448Z,25.00
2023-03-03T23:20:21.186Z,26.10
2023-03-03T23:22:51.379Z,23.20
2023-03-03T23:25:22.772Z,24.00
2023-03-03T23:27:53.048Z,21.00
2023-03-03T23:30:50.548Z,23.90
2023-03-03T23:33:21.993Z,23.40
2023-03-03T23:35:53.199Z,23.00
2023-03-03T23:38:23.570Z,23.20
2023-03-03T23:40:55.796Z,23.10
2023-03-03T23:43:26.225Z,25.50
2023-03-03T23:45:55.766Z,24.50
2023-03-03T23:48:25.552Z,25.30
2023-03-03T23:50:54.278Z,25.50
2023-03-03T23:53:23.503Z,25.90
2023-03-03T23:55:54.247Z,30.40
2023-03-03T23:58:24.542Z,26.80
